createdAt,value
2019-05-18T00:00:44.732Z,66.87
2019-05-18T00:03:16.284Z,66.61
2019-05-18T00:05:48.141Z,66.89
2019-05-18T00:08:19.702Z,66.75
2019-05-18T00:10:52.379Z,67.06
2019-05-18T00:13:24.234Z,67.03
2019-05-18T00:15:55.788Z,66.72
2019-05-18T00:18:27.445Z,66.94
2019-05-18T00:20:59.153Z,67.18
2019-05-18T00:23:30.751Z,67.09
2019-05-18T00:26:02.415Z,67.19
2019-05-18T00:28:35.600Z,67.18
2019-05-18T00:31:07.256Z,67.51
2019-05-18T00:33:38.805Z,67.93
2019-05-18T00:36:10.771Z,67.40
2019-05-18T00:38:42.423Z,66.92
2019-05-18T00:41:13.981Z,67.19
2019-05-18T00:43:45.539Z,67.53
2019-05-18T00:46:16.978Z,67.59
2019-05-18T00:48:48.533Z,67.55
2019-05-18T00:51:23.158Z,67.44
2019-05-18T00:53:53.788Z,67.86
2019-05-18T00:56:25.602Z,67.90
2019-05-18T00:58:57.104Z,68.23
2019-05-18T01:01:28.973Z,67.53
2019-05-18T01:04:00.619Z,67.35
2019-05-18T01:06:32.277Z,68.14
2019-05-18T01:09:05.271Z,67.64
2019-05-18T01:11:36.921Z,68.38
2019-05-18T01:14:08.605Z,67.74
2019-05-18T01:16:39.949Z,68.14
2019-05-18T01:19:11.492Z,68.16
2019-05-18T01:21:43.535Z,68.07
2019-05-18T01:24:15.088Z,67.75
2019-05-18T01:26:46.943Z,68.29
2019-05-18T01:29:18.606Z,68.54
2019-05-18T01:31:50.265Z,68.51
2019-05-18T01:34:21.922Z,68.64
2019-05-18T01:36:53.568Z,68.45
2019-05-18T01:39:24.940Z,68.96
2019-05-18T01:41:56.579Z,68.87
2019-05-18T01:44:28.135Z,68.73
2019-05-18T01:46:59.990Z,69.03
2019-05-18T01:49:31.750Z,68.92
2019-05-18T01:52:03.313Z,69.44
2019-05-18T01:54:34.754Z,69.17
2019-05-18T01:57:06.535Z,69.40
2019-05-18T01:59:38.161Z,69.18
2019-05-18T02:02:10.126Z,69.38
2019-05-18T02:04:41.981Z,70.06
2019-05-18T02:07:13.614Z,70.14
2019-05-18T02:09:45.090Z,69.87
2019-05-18T02:12:16.943Z,69.74
2019-05-18T02:14:48.604Z,69.69
2019-05-18T02:17:20.297Z,70.05
2019-05-18T02:19:51.582Z,69.71
2019-05-18T02:22:23.564Z,68.95
2019-05-18T02:24:55.119Z,69.15
2019-05-18T02:27:27.209Z,69.00
2019-05-18T02:29:58.980Z,68.93
2019-05-18T02:32:31.012Z,68.69
2019-05-18T02:35:02.982Z,69.00
2019-05-18T02:37:34.828Z,68.31
2019-05-18T02:40:07.108Z,68.04
2019-05-18T02:42:38.559Z,68.17
2019-05-18T02:45:10.314Z,67.92
2019-05-18T02:47:42.074Z,67.82
2019-05-18T02:50:13.608Z,67.09
2019-05-18T02:52:45.382Z,66.93
2019-05-18T02:55:17.035Z,66.55
2019-05-18T02:57:48.895Z,66.27
2019-05-18T03:00:20.459Z,66.21
2019-05-18T03:02:52.414Z,66.00
2019-05-18T03:05:24.072Z,66.13
2019-05-18T03:07:56.040Z,64.96
2019-05-18T03:10:27.641Z,65.94
2019-05-18T03:12:59.332Z,64.91
2019-05-18T03:15:30.844Z,64.07
2019-05-18T03:18:02.346Z,64.83
2019-05-18T03:20:34.308Z,64.63
2019-05-18T03:23:05.882Z,64.16
2019-05-18T03:25:37.307Z,63.21
2019-05-18T03:28:08.958Z,62.01
2019-05-18T03:30:40.732Z,60.52
2019-05-18T03:33:12.269Z,56.11
2019-05-18T03:35:43.984Z,53.47
2019-05-18T03:38:15.590Z,52.73
2019-05-18T03:40:47.136Z,52.30
2019-05-18T03:43:18.989Z,52.52
2019-05-18T03:45:50.861Z,54.72
2019-05-18T03:48:22.510Z,53.86
2019-05-18T03:50:53.958Z,51.44
2019-05-18T03:53:27.154Z,49.33
2019-05-18T03:55:58.911Z,48.97
2019-05-18T03:58:30.367Z,51.80
2019-05-18T04:01:02.340Z,54.33
2019-05-18T04:03:33.975Z,58.02
2019-05-18T04:06:05.690Z,58.73
2019-05-18T04:08:37.607Z,60.11
2019-05-18T04:11:09.461Z,61.78
2019-05-18T04:13:41.221Z,61.68
2019-05-18T04:16:12.978Z,62.04
2019-05-18T04:18:44.837Z,61.68
2019-05-18T04:21:16.392Z,60.52
2019-05-18T04:23:48.262Z,59.00
2019-05-18T04:26:19.792Z,57.59
2019-05-18T04:28:51.663Z,56.60
2019-05-18T04:31:23.110Z,56.24
2019-05-18T04:33:54.970Z,54.14
2019-05-18T04:36:26.932Z,53.33
2019-05-18T04:38:58.485Z,54.16
2019-05-18T04:41:30.973Z,54.93
2019-05-18T04:44:02.722Z,56.39
2019-05-18T04:46:34.580Z,57.43
2019-05-18T04:49:10.739Z,57.87
2019-05-18T04:51:42.411Z,57.35
2019-05-18T04:54:14.459Z,57.07
2019-05-18T04:56:45.803Z,57.01
2019-05-18T04:59:17.563Z,55.91
2019-05-18T05:01:56.415Z,53.61
2019-05-18T05:04:28.045Z,51.32
2019-05-18T05:06:59.497Z,47.90
2019-05-18T05:09:31.351Z,46.24
2019-05-18T05:12:04.349Z,44.76
2019-05-18T05:14:36.101Z,44.03
2019-05-18T05:17:07.455Z,42.46
2019-05-18T05:19:39.202Z,41.99
2019-05-18T05:22:11.074Z,40.93
2019-05-18T05:24:45.095Z,40.23
2019-05-18T05:27:19.301Z,40.43
2019-05-18T05:29:50.899Z,40.58
2019-05-18T05:32:22.602Z,40.26
2019-05-18T05:34:54.466Z,40.41
2019-05-18T05:37:45.470Z,39.18
2019-05-18T05:40:19.079Z,38.82
2019-05-18T05:42:50.722Z,37.71
2019-05-18T05:45:22.804Z,37.43
2019-05-18T05:47:54.780Z,36.26
2019-05-18T05:50:35.196Z,36.55
2019-05-18T05:53:00.419Z,36.55
2019-05-18T05:55:32.959Z,35.84
2019-05-18T05:58:04.446Z,35.49
2019-05-18T06:00:36.191Z,35.76
2019-05-18T06:03:08.498Z,35.38
2019-05-18T06:05:42.483Z,35.36
2019-05-18T06:08:17.045Z,33.96
2019-05-18T06:10:53.308Z,33.16
2019-05-18T06:13:25.825Z,32.77
2019-05-18T06:15:57.471Z,31.75
2019-05-18T06:18:29.079Z,30.48
2019-05-18T06:21:00.752Z,31.33
2019-05-18T06:23:32.731Z,30.35
2019-05-18T06:26:04.546Z,30.55
2019-05-18T06:28:36.398Z,30.04
2019-05-18T06:31:08.301Z,30.45
2019-05-18T06:33:39.740Z,29.28
2019-05-18T06:36:11.774Z,29.93
2019-05-18T06:38:43.594Z,29.91
2019-05-18T06:41:15.313Z,29.23
2019-05-18T06:43:46.753Z,28.75
2019-05-18T06:46:18.257Z,29.12
2019-05-18T06:48:49.896Z,28.78
2019-05-18T06:51:21.478Z,28.60
2019-05-18T06:54:11.268Z,29.36
2019-05-18T06:56:43.042Z,29.13
2019-05-18T06:59:16.408Z,29.72
2019-05-18T07:01:48.238Z,28.56
2019-05-18T07:05:22.374Z,28.49
2019-05-18T07:07:53.841Z,28.59
2019-05-18T07:10:25.271Z,28.73
2019-05-18T07:12:57.111Z,28.27
2019-05-18T07:15:28.545Z,27.86
2019-05-18T07:18:01.974Z,28.99
2019-05-18T07:20:34.597Z,28.81
2019-05-18T07:23:06.494Z,28.56
2019-05-18T07:25:39.124Z,28.00
2019-05-18T07:28:10.996Z,28.78
2019-05-18T07:30:43.181Z,29.10
2019-05-18T07:33:17.168Z,28.49
2019-05-18T07:35:49.656Z,27.75
2019-05-18T07:38:21.187Z,28.71
2019-05-18T07:41:12.617Z,27.49
2019-05-18T07:43:44.517Z,27.58
2019-05-18T07:46:15.840Z,28.56
2019-05-18T07:48:53.472Z,27.49
2019-05-18T07:51:37.124Z,26.55
2019-05-18T07:54:07.333Z,27.00
2019-05-18T07:57:05.815Z,26.06
2019-05-18T07:59:42.044Z,26.45
2019-05-18T08:02:16.900Z,25.48
2019-05-18T08:05:08.231Z,25.61
2019-05-18T08:07:46.541Z,25.21
2019-05-18T08:10:22.530Z,25.43
2019-05-18T08:13:06.578Z,24.27
2019-05-18T08:16:07.884Z,23.84
2019-05-18T08:18:46.599Z,24.15
2019-05-18T08:21:33.092Z,23.91
2019-05-18T08:24:17.367Z,24.18
2019-05-18T08:26:54.761Z,23.59
2019-05-18T08:29:35.335Z,23.41
2019-05-18T08:32:17.129Z,23.87
2019-05-18T08:38:04.885Z,22.81
2019-05-18T08:40:57.066Z,23.04
2019-05-18T08:43:34.640Z,23.12
2019-05-18T08:49:37.840Z,23.56
2019-05-18T08:52:14.124Z,24.59
2019-05-18T08:54:52.905Z,24.58
2019-05-18T08:57:53.126Z,25.59
2019-05-18T09:00:39.813Z,25.84
2019-05-18T09:03:22.762Z,24.92
2019-05-18T09:06:04.625Z,25.36
2019-05-18T09:08:51.044Z,25.49
2019-05-18T09:11:34.908Z,24.31
2019-05-18T09:17:11.968Z,24.16
2019-05-18T09:19:45.863Z,24.57
2019-05-18T09:22:25.136Z,24.37
2019-05-18T09:24:57.990Z,25.33
2019-05-18T09:27:36.733Z,25.38
2019-05-18T09:30:15.349Z,25.57
2019-05-18T09:32:56.419Z,26.43
2019-05-18T09:35:31.549Z,26.35
2019-05-18T09:38:07.739Z,25.09
2019-05-18T09:40:51.848Z,25.08
2019-05-18T09:43:31.008Z,25.08
2019-05-18T09:46:06.019Z,25.39
2019-05-18T09:49:16.152Z,25.35
2019-05-18T09:51:57.052Z,24.79
2019-05-18T09:54:35.680Z,24.91
2019-05-18T09:57:27.683Z,25.44
2019-05-18T10:00:24.793Z,25.44
2019-05-18T10:03:14.321Z,25.78
2019-05-18T10:05:51.262Z,26.18
2019-05-18T10:08:50.940Z,26.56
2019-05-18T10:14:38.038Z,29.11
2019-05-18T10:17:34.752Z,29.96
2019-05-18T10:20:19.850Z,31.49
2019-05-18T10:23:12.476Z,33.26
2019-05-18T10:25:51.818Z,32.89
2019-05-18T10:28:26.837Z,33.97
2019-05-18T10:31:03.566Z,34.45
2019-05-18T10:33:53.767Z,33.98
2019-05-18T10:36:26.103Z,34.46
2019-05-18T10:39:03.930Z,35.04
2019-05-18T10:41:42.707Z,34.23
2019-05-18T10:44:19.337Z,36.06
2019-05-18T10:46:55.487Z,35.50
2019-05-18T10:49:32.588Z,34.76
2019-05-18T10:52:18.297Z,35.34
2019-05-18T10:54:54.544Z,35.91
2019-05-18T10:57:31.613Z,36.27
2019-05-18T11:00:17.886Z,36.50
2019-05-18T11:02:51.463Z,35.93
2019-05-18T11:05:24.855Z,36.34
2019-05-18T11:07:58.376Z,36.95
2019-05-18T11:10:37.655Z,36.99
2019-05-18T11:13:31.520Z,36.35
2019-05-18T11:16:31.848Z,37.00
2019-05-18T11:19:16.410Z,36.16
2019-05-18T11:22:04.806Z,36.31
2019-05-18T11:25:01.797Z,36.93
2019-05-18T15:10:16.185Z,43.71
2019-05-18T15:12:47.808Z,43.83
2019-05-18T15:15:24.201Z,44.25
2019-05-18T15:17:58.383Z,44.63
2019-05-18T15:20:33.758Z,44.57
2019-05-18T15:23:11.307Z,45.28
2019-05-18T15:25:51.198Z,45.31
2019-05-18T15:28:35.203Z,45.42
2019-05-18T15:31:26.188Z,44.77
2019-05-18T15:34:13.917Z,44.33
2019-05-18T15:37:04.911Z,44.63
2019-05-18T15:39:55.300Z,45.18
2019-05-18T15:42:49.188Z,46.31
2019-05-18T15:45:48.143Z,45.20
2019-05-18T15:48:40.630Z,44.94
2019-05-18T15:52:04.929Z,45.32
2019-05-18T15:54:57.922Z,45.94
2019-05-18T15:58:04.626Z,45.12
2019-05-18T16:00:47.994Z,45.34
2019-05-18T16:03:53.532Z,46.19
2019-05-18T16:06:38.330Z,45.92
2019-05-18T16:09:30.886Z,45.66
2019-05-18T16:12:03.083Z,46.04
2019-05-18T16:14:34.916Z,45.55
2019-05-18T16:17:06.580Z,45.96
2019-05-18T16:19:38.229Z,45.46
2019-05-18T16:22:15.626Z,46.36
2019-05-18T16:24:55.893Z,46.69
2019-05-18T16:27:42.946Z,46.31
2019-05-18T16:30:26.913Z,46.54
2019-05-18T16:33:15.235Z,47.00
2019-05-18T16:36:01.575Z,47.25
2019-05-18T16:39:00.936Z,47.03
2019-05-18T16:41:36.169Z,47.39
2019-05-18T16:44:19.105Z,47.74
2019-05-18T16:47:31.887Z,47.75
2019-05-18T16:50:10.767Z,48.01
2019-05-18T16:52:50.189Z,48.51
2019-05-18T16:55:37.881Z,48.61
2019-05-18T16:58:20.930Z,48.77
2019-05-18T17:00:56.258Z,48.83
2019-05-18T17:03:33.099Z,49.08
2019-05-18T17:06:11.815Z,48.95
2019-05-18T17:09:17.754Z,49.51
2019-05-18T17:12:01.893Z,49.80
2019-05-18T17:14:59.115Z,50.21
2019-05-18T17:17:37.414Z,50.64
2019-05-18T17:20:30.438Z,51.04
2019-05-18T17:23:19.044Z,50.77
2019-05-18T17:25:53.319Z,50.43
2019-05-18T17:28:28.879Z,50.87
2019-05-18T17:31:03.945Z,50.51
2019-05-18T17:33:43.717Z,51.07
2019-05-18T17:36:30.749Z,50.42
2019-05-18T17:39:12.784Z,50.81
2019-05-18T17:41:51.434Z,51.03
2019-05-18T17:44:25.743Z,51.24
2019-05-18T17:47:02.336Z,50.86
2019-05-18T17:49:44.467Z,51.40
2019-05-18T17:52:27.937Z,51.34
2019-05-18T17:55:05.163Z,51.76
2019-05-18T17:57:50.045Z,52.54
2019-05-18T18:00:27.418Z,52.71
2019-05-18T18:03:12.542Z,53.84
2019-05-18T18:05:47.671Z,53.95
2019-05-18T18:08:22.304Z,54.21
2019-05-18T18:13:58.870Z,55.53
2019-05-18T18:16:34.577Z,55.34
2019-05-18T18:19:07.208Z,55.57
2019-05-18T18:21:43.490Z,55.78
2019-05-18T18:24:23.884Z,56.17
2019-05-18T18:26:58.991Z,56.50
2019-05-18T18:29:33.038Z,56.94
2019-05-18T18:32:07.714Z,56.99
2019-05-18T18:34:40.332Z,57.00
2019-05-18T18:37:18.234Z,56.57
2019-05-18T18:39:54.521Z,56.83
2019-05-18T18:42:39.412Z,57.34
2019-05-18T18:45:14.416Z,57.41
2019-05-18T18:47:47.398Z,57.82
2019-05-18T18:50:21.280Z,57.53
2019-05-18T18:52:53.671Z,57.44
2019-05-18T18:55:28.577Z,57.16
2019-05-18T18:58:04.443Z,57.11
2019-05-18T19:00:41.419Z,57.47
2019-05-18T19:03:34.845Z,57.33
2019-05-18T19:06:07.357Z,57.64
2019-05-18T19:09:01.727Z,56.91
2019-05-18T19:11:41.755Z,57.93
2019-05-18T19:14:16.327Z,57.66
2019-05-18T19:17:08.231Z,57.31
2019-05-18T19:19:51.426Z,57.32
2019-05-18T19:22:28.867Z,57.18
2019-05-18T19:25:43.021Z,57.56
2019-05-18T19:28:15.319Z,57.58
2019-05-18T19:30:47.730Z,57.76
2019-05-18T19:33:19.369Z,57.95
2019-05-18T19:35:55.124Z,57.64
2019-05-18T19:38:27.779Z,57.61
2019-05-18T19:41:02.526Z,57.74
2019-05-18T19:43:34.411Z,57.38
2019-05-18T19:46:06.361Z,57.29
2019-05-18T19:48:38.127Z,57.75
2019-05-18T19:51:16.396Z,57.08
2019-05-18T19:53:50.848Z,56.89
2019-05-18T19:56:23.221Z,57.21
2019-05-18T19:58:54.785Z,57.45
2019-05-18T20:01:27.459Z,57.50
2019-05-18T20:03:59.734Z,57.36
2019-05-18T20:06:32.914Z,57.09
2019-05-18T20:09:25.250Z,57.48
2019-05-18T20:11:57.309Z,57.77
2019-05-18T20:14:29.118Z,57.51
2019-05-18T20:17:01.789Z,57.53
2019-05-18T20:19:39.064Z,57.09
2019-05-18T20:22:06.818Z,56.76
2019-05-18T20:24:37.937Z,57.16
2019-05-18T20:27:09.827Z,57.52
2019-05-18T20:29:43.144Z,57.55
2019-05-18T20:32:14.846Z,58.12
2019-05-18T20:34:46.401Z,58.41
2019-05-18T20:37:24.115Z,58.49
2019-05-18T20:39:55.452Z,58.34
2019-05-18T20:42:28.271Z,58.59
2019-05-18T20:44:59.888Z,58.80
2019-05-18T20:47:31.966Z,58.71
2019-05-18T20:50:05.543Z,59.14
2019-05-18T20:52:38.738Z,58.90
2019-05-18T20:55:10.202Z,59.14
2019-05-18T20:57:43.995Z,59.39
2019-05-18T21:00:15.854Z,59.38
2019-05-18T21:02:47.712Z,58.88
2019-05-18T21:05:19.470Z,58.81
2019-05-18T21:07:51.442Z,59.00
2019-05-18T21:10:22.884Z,59.17
2019-05-18T21:12:54.947Z,59.26
2019-05-18T21:15:26.819Z,59.22
2019-05-18T21:17:59.183Z,59.00
2019-05-18T21:20:30.645Z,59.55
2019-05-18T21:23:02.192Z,59.36
2019-05-18T21:25:34.146Z,59.65
2019-05-18T21:28:07.545Z,59.57
2019-05-18T21:30:39.206Z,60.03
2019-05-18T21:33:11.061Z,60.01
2019-05-18T21:35:42.713Z,59.33
2019-05-18T21:38:14.677Z,59.96
2019-05-18T21:40:47.667Z,59.69
2019-05-18T21:43:19.527Z,59.58
2019-05-18T21:45:51.195Z,59.50
2019-05-18T21:48:22.827Z,59.33
2019-05-18T21:50:54.480Z,59.82
2019-05-18T21:53:26.955Z,60.38
2019-05-18T21:55:58.822Z,60.54
2019-05-18T21:58:30.475Z,60.41
2019-05-18T22:01:02.137Z,60.48
2019-05-18T22:03:34.115Z,60.05
2019-05-18T22:06:05.957Z,60.47
2019-05-18T22:08:37.810Z,60.37
2019-05-18T22:11:09.570Z,59.81
2019-05-18T22:13:43.479Z,60.62
2019-05-18T22:16:15.236Z,60.72
2019-05-18T22:18:47.608Z,60.45
2019-05-18T22:21:18.849Z,59.98
2019-05-18T22:23:50.615Z,60.15
2019-05-18T22:26:22.477Z,60.45
2019-05-18T22:28:54.442Z,60.64
2019-05-18T22:31:25.990Z,61.34
2019-05-18T22:33:57.959Z,61.37
2019-05-18T22:36:29.600Z,61.92
2019-05-18T22:39:07.195Z,61.57
2019-05-18T22:41:38.748Z,61.86
2019-05-18T22:44:10.604Z,62.51
2019-05-18T22:46:42.061Z,61.89
2019-05-18T22:49:14.021Z,61.99
2019-05-18T22:51:45.891Z,62.13
2019-05-18T22:54:17.741Z,61.80
2019-05-18T22:56:49.317Z,61.71
2019-05-18T22:59:20.961Z,61.53
2019-05-18T23:01:52.311Z,61.39
2019-05-18T23:04:23.860Z,61.19
2019-05-18T23:06:55.607Z,61.67
2019-05-18T23:09:27.069Z,61.14
2019-05-18T23:11:58.726Z,61.16
2019-05-18T23:14:30.383Z,60.89
2019-05-18T23:17:01.830Z,61.30
2019-05-18T23:19:33.996Z,60.20
2019-05-18T23:22:05.548Z,60.40
2019-05-18T23:24:37.095Z,60.31
2019-05-18T23:27:12.484Z,59.90
2019-05-18T23:29:44.092Z,59.74
2019-05-18T23:32:16.152Z,61.01
2019-05-18T23:34:48.116Z,61.15
2019-05-18T23:37:19.782Z,60.79
2019-05-18T23:39:53.685Z,61.63
2019-05-18T23:42:25.955Z,61.25
2019-05-18T23:44:58.738Z,60.37
2019-05-18T23:47:30.902Z,60.58
2019-05-18T23:50:02.866Z,60.54
2019-05-18T23:52:34.316Z,60.93
2019-05-18T23:55:06.897Z,60.92
2019-05-18T23:57:38.449Z,61.35
